Station: Thargomindah  

  Atmospheric Gas Attenuation - ITU Rec 676-11   ----------------- dB/100km -----------------
Date Time Temp RH % AH g/m3 Dew Point Wind Direction Speed kph Gust kph Barometer mB Rainfall Since 9am 24GHz 47GHz 76GHz 122GHz 134GHz 241GHz
08/05 12:30 17.6 32 4.8 0.7 20 30 1026.3 0 11.4 19.8 24.9 64.6 49.9 168.8
08/05 12:20 17.5 31 4.62 0.2 24 33 1026.5 0 11.0 19.6 24.4 63.1 48.1 162.1
08/05 12:10 17.2 32 4.69 0.4 24 32 1026.8 0 11.2 19.7 24.7 64.0 49.0 165.4
08/05 12:00 17.3 33 4.86 0.9 20 33 1026.9 0 11.5 20.0 25.2 65.4 50.8 171.8
08/05 11:50 16.9 33 4.75 0.5 17 22 1027.1 0 11.3 19.9 25.0 64.7 49.9 168.4
08/05 11:40 16.6 33 4.66 0.3 24 28 1027.2 0 11.1 19.8 24.8 64.2 49.1 165.5
08/05 11:30 16.5 34 4.77 0.6 22 35 1027.3 0 11.4 20.0 25.2 65.3 50.3 170.0
08/05 11:20 16.4 34 4.75 0.5 22 28 1027.5 0 11.3 20.0 25.2 65.2 50.2 169.5
08/05 11:10 16.4 35 4.88 0.9 20 28 1027.5 0 11.6 20.2 25.6 66.3 51.6 174.5
08/05 11:00 15.9 36 4.88 0.9 24 33 1027.6 0 11.6 20.3 25.8 66.7 52.0 175.6
08/05 10:50 15.7 37 4.95 1.1 20 28 1027.7 0 11.8 20.4 26.1 67.6 52.9 178.8
08/05 10:40 15.7 37 4.95 1.1 22 26 1027.9 0 11.8 20.5 26.1 67.6 52.9 178.9
08/05 10:30 15.1 38 4.9 0.9 24 33 1027.9 0 11.7 20.5 26.1 67.6 52.7 178.2
08/05 10:20 14.9 38 4.84 0.7 24 32 1028 0 11.6 20.5 26.0 67.2 52.2 176.2
08/05 10:10 14.6 39 4.88 0.8 26 32 1028 0 11.7 20.6 26.2 67.8 52.8 178.5
08/05 10:00 14.3 40 4.91 0.9 26 39 1028.1 0 11.7 20.7 26.4 68.4 53.4 180.4
08/05 09:50 14.2 40 4.88 0.8 24 30 1028.1 0 11.7 20.7 26.3 68.2 53.1 179.4
08/05 09:40 13.7 41 4.86 0.7 24 30 1028 0 11.7 20.8 26.4 68.4 53.2 179.6
08/05 09:30 13.6 41 4.83 0.6 19 35 1028 0 11.6 20.8 26.3 68.2 52.9 178.6
08/05 09:20 13.1 43 4.91 0.8 17 22 1028.1 0 11.8 21.0 26.8 69.4 54.2 183.0
08/05 09:10 12.6 44 4.87 0.7 17 24 1028 0 11.7 21.0 26.8 69.4 54.0 182.5
08/05 09:00 12 46 4.9 0.8 17 22 1028 0 11.8 21.2 27.1 70.2 54.8 185.1
08/05 08:50 11.2 47 4.76 0.3 20 22 1028 0 11.5 21.2 26.9 69.6 53.7 181.0
08/05 08:40 10.7 49 4.81 0.4 15 17 1027.9 0 11.6 21.4 27.2 70.5 54.6 184.2
08/05 08:30 10.3 50 4.79 0.3 17 24 1027.8 0 11.6 21.4 27.3 70.6 54.6 184.3
08/05 08:20 10 50 4.7 0.1 13 15 1027.8 0 11.4 21.4 27.0 70.0 53.7 181.2
08/05 08:10 9.6 51 4.67 0 13 15 1027.7 0 11.4 21.4 27.0 70.1 53.6 180.8
08/05 08:00 9.1 52 4.62 -0.2 13 19 1027.5 0 11.3 21.5 27.0 70.0 53.4 179.7
08/05 07:50 8.6 53 4.56 -0.4 13 17 1027.3 0 11.2 21.5 27.0 69.8 53.0 178.2
08/05 07:40 8.4 53 4.5 -0.6 13 15 1027.4 0 11.1 21.4 26.8 69.4 52.4 176.1
08/05 07:30 7.9 55 4.52 -0.6 11 15 1027.3 0 11.1 21.6 27.0 70.1 52.9 178.1
08/05 07:20 7.1 60 4.68 -0.1 11 13 1027.3 0 11.5 22.0 27.9 72.4 55.5 186.8
08/05 07:10 6.3 65 4.81 0.2 9 9 1027.3 0 11.8 22.4 28.7 74.4 57.7 194.5
08/05 07:00 6.3 65 4.81 0.2 9 9 1027.2 0 11.8 22.4 28.7 74.4 57.7 194.5
08/05 06:50 6.5 62 4.65 -0.2 7 9 1027.1 0 11.4 22.1 28.0 72.6 55.5 186.9
08/05 06:40 6.6 62 4.68 -0.1 9 9 1027 0 11.5 22.1 28.1 72.8 55.8 187.9
08/05 06:30 6.7 58 4.41 -1 9 11 1027.1 0 10.9 21.7 27.0 70.0 52.4 175.9
08/05 06:20 6.8 61 4.67 -0.2 9 11 1026.9 0 11.5 22.1 28.0 72.5 55.5 187.0
08/05 06:10 6.6 62 4.68 -0.1 9 9 1026.9 0 11.5 22.1 28.1 72.8 55.8 187.9
08/05 06:00 6.6 62 4.68 -0.1 7 9 1026.9 0 11.5 22.1 28.1 72.8 55.8 187.9
08/05 05:50 6.8 58 4.44 -0.9 7 7 1026.9 0 11.0 21.7 27.1 70.2 52.7 176.9
08/05 05:40 7 58 4.5 -0.7 7 7 1026.7 0 11.1 21.7 27.2 70.6 53.3 179.1
08/05 05:30 7 60 4.65 -0.2 7 9 1026.6 0 11.4 22.0 27.8 72.1 55.1 185.6
08/05 05:20 7.2 58 4.56 -0.5 7 7 1026.7 0 11.2 21.8 27.4 71.0 53.9 181.3
08/05 05:10 7.5 56 4.48 -0.7 7 7 1026.6 0 11.0 21.6 27.0 70.0 52.7 177.1
08/05 05:00 7.5 56 4.48 -0.7 7 9 1026.5 0 11.0 21.6 27.0 69.9 52.7 177.1
08/05 04:50 7.7 55 4.46 -0.8 7 9 1026.6 0 11.0 21.5 26.9 69.6 52.3 175.8
08/05 04:40 7.9 52 4.27 -1.3 9 11 1026.4 0 10.6 21.2 26.1 67.5 49.9 167.2
08/05 04:30 8 52 4.3 -1.2 9 11 1026.4 0 10.6 21.2 26.2 67.7 50.2 168.3
08/05 04:20 8.1 52 4.33 -1.1 9 11 1026.5 0 10.7 21.2 26.2 67.9 50.5 169.4
08/05 04:10 8.2 51 4.27 -1.3 9 9 1026.4 0 10.6 21.1 26.0 67.3 49.7 166.6
08/05 04:00 8.3 50 4.22 -1.5 9 13 1026.2 0 10.5 21.0 25.8 66.7 49.0 164.2
08/05 03:50 8.5 49 4.19 -1.6 11 13 1026.2 0 10.4 20.9 25.6 66.2 48.5 162.6
08/05 03:40 8.5 50 4.27 -1.3 13 13 1026.1 0 10.6 21.0 25.9 67.0 49.5 165.9
08/05 03:30 8.5 50 4.27 -1.3 13 15 1025.9 0 10.6 21.0 25.9 67.0 49.5 165.9
08/05 03:20 8.4 51 4.33 -1.1 13 15 1026.1 0 10.7 21.1 26.1 67.7 50.2 168.7
08/05 03:10 8.4 50 4.24 -1.4 11 13 1026.3 0 10.5 21.0 25.8 66.8 49.2 164.9
08/05 03:00 8.5 50 4.27 -1.3 11 13 1026.2 0 10.6 21.0 25.9 67.0 49.5 165.9
08/05 02:50 8.7 50 4.33 -1.1 11 13 1026.4 0 10.7 21.1 26.0 67.4 50.1 168.1
08/05 02:40 8.8 50 4.35 -1 11 13 1026.3 0 10.7 21.1 26.1 67.5 50.2 168.7
08/05 02:30 8.8 51 4.44 -0.8 11 15 1026.1 0 10.9 21.2 26.4 68.4 51.3 172.5
08/05 02:20 8.6 52 4.47 -0.7 11 13 1026.2 0 11.0 21.3 26.6 68.9 51.8 174.2
08/05 02:10 8.8 53 4.61 -0.2 9 9 1026.2 0 11.3 21.5 27.0 70.1 53.4 179.8
08/05 02:00 9.1 50 4.44 -0.8 9 11 1026.1 0 10.9 21.1 26.3 68.1 51.1 171.9
08/05 01:50 8.9 52 4.56 -0.4 7 9 1026.2 0 11.2 21.4 26.8 69.5 52.7 177.4
08/05 01:40 9 52 4.59 -0.3 7 9 1026.2 0 11.2 21.4 26.9 69.7 53.0 178.5
08/05 01:30 9.3 50 4.49 -0.6 7 9 1026.2 0 11.0 21.2 26.4 68.5 51.6 173.6
08/05 01:20 9.5 49 4.46 -0.7 7 9 1026.3 0 10.9 21.1 26.3 68.0 51.1 171.9
08/05 01:10 9.7 49 4.52 -0.5 9 11 1026.2 0 11.1 21.1 26.4 68.4 51.7 174.0
08/05 01:00 9.8 48 4.45 -0.7 9 11 1026.1 0 10.9 21.0 26.1 67.6 50.8 170.8
08/05 00:50 10.1 47 4.45 -0.7 9 11 1026.2 0 10.9 20.9 26.0 67.4 50.6 170.2
08/05 00:40 10.3 45 4.31 -1.1 11 11 1026.3 0 10.6 20.7 25.5 65.9 48.8 164.0
08/05 00:30 10.3 46 4.41 -0.8 11 13 1026.4 0 10.8 20.8 25.8 66.9 50.0 168.1
08/05 00:20 10.3 47 4.5 -0.5 11 13 1026.5 0 11.0 21.0 26.2 67.7 51.1 171.9
08/05 00:10 10.4 45 4.34 -1 11 13 1026.5 0 10.7 20.7 25.6 66.1 49.1 165.0
08/05 00:00 10.5 45 4.37 -0.9 9 11 1026.6 0 10.7 20.7 25.6 66.3 49.4 166.1
07/05 23:50 10.6 45 4.39 -0.8 9 11 1026.6 0 10.8 20.8 25.7 66.4 49.6 166.7
07/05 23:40 10.7 46 4.52 -0.4 9 11 1026.6 0 11.0 20.9 26.1 67.6 51.1 171.9
07/05 23:30 11 44 4.41 -0.8 9 13 1026.6 0 10.8 20.7 25.6 66.3 49.6 166.7
07/05 23:20 11.4 43 4.41 -0.7 11 11 1026.7 0 10.8 20.6 25.5 66.0 49.4 165.9
07/05 23:10 11.6 42 4.37 -0.9 11 11 1026.7 0 10.7 20.5 25.3 65.5 48.8 163.9
07/05 23:00 12 41 4.37 -0.8 15 19 1026.6 0 10.7 20.4 25.2 65.1 48.5 163.1
07/05 22:50 12.1 41 4.4 -0.7 15 19 1026.7 0 10.7 20.4 25.2 65.3 48.8 164.1
07/05 22:40 12.1 43 4.61 -0.1 11 13 1026.7 0 11.2 20.7 26.0 67.3 51.3 172.7
07/05 22:30 12.2 44 4.75 0.3 13 17 1026.5 0 11.5 20.9 26.4 68.5 52.8 178.2
07/05 22:20 12.2 44 4.75 0.3 11 13 1026.6 0 11.5 20.9 26.4 68.5 52.8 178.2
07/05 22:10 12.4 44 4.81 0.5 13 15 1026.6 0 11.6 20.9 26.6 68.9 53.4 180.2
07/05 22:00 12.5 43 4.73 0.3 13 17 1026.5 0 11.4 20.8 26.3 68.1 52.4 176.7
07/05 21:50 12.7 42 4.68 0.1 13 15 1026.5 0 11.3 20.7 26.0 67.4 51.7 174.2
07/05 21:40 13 41 4.65 0.1 13 17 1026.4 0 11.2 20.6 25.8 66.9 51.1 172.4
07/05 21:30 13.1 41 4.68 0.2 11 15 1026.3 0 11.3 20.6 25.9 67.1 51.4 173.4
07/05 21:20 13.3 41 4.74 0.3 11 15 1026.3 0 11.4 20.6 26.0 67.5 52.0 175.4
07/05 21:10 13.6 40 4.71 0.3 15 17 1026.3 0 11.3 20.5 25.9 67.0 51.4 173.5
07/05 21:00 13.8 39 4.65 0.1 15 22 1026 0 11.2 20.4 25.6 66.2 50.6 170.6
07/05 20:50 14 38 4.58 -0.1 17 19 1026 0 11.1 20.2 25.3 65.4 49.7 167.4
07/05 20:40 14.1 38 4.61 0 17 19 1025.9 0 11.1 20.3 25.3 65.6 50.0 168.4
07/05 20:30 14.4 38 4.7 0.3 19 24 1025.8 0 11.3 20.3 25.6 66.2 50.8 171.4
07/05 20:20 14.5 38 4.73 0.4 19 22 1025.7 0 11.4 20.3 25.6 66.4 51.1 172.3
07/05 20:10 14.7 37 4.66 0.2 20 24 1025.6 0 11.2 20.2 25.3 65.6 50.1 169.1
07/05 20:00 14.8 37 4.69 0.3 17 24 1025.4 0 11.3 20.2 25.4 65.7 50.4 170.1

Last Refresh: 08-May-2026 12:09:22

Bureau of Meteorology